createdAt,value
2023-05-25T00:07:40.907Z,55.83
2023-05-25T00:16:04.057Z,55.99
2023-05-25T00:24:26.924Z,55.91
2023-05-25T00:32:49.820Z,56.10
2023-05-25T00:41:13.748Z,56.14
2023-05-25T00:49:36.916Z,56.26
2023-05-25T00:58:01.427Z,56.17
2023-05-25T01:06:27.373Z,56.43
2023-05-25T01:14:53.472Z,56.21
2023-05-25T01:23:20.691Z,56.33
2023-05-25T01:31:45.575Z,56.41
2023-05-25T01:40:09.718Z,56.40
2023-05-25T01:48:51.098Z,56.65
2023-05-25T01:57:17.005Z,56.79
2023-05-25T02:05:46.510Z,56.63
2023-05-25T02:14:11.225Z,56.81
2023-05-25T02:22:35.113Z,56.83
2023-05-25T02:30:58.016Z,56.96
2023-05-25T02:39:21.102Z,56.97
2023-05-25T02:47:44.673Z,57.12
2023-05-25T02:56:10.417Z,57.23
2023-05-25T03:04:38.016Z,57.22
2023-05-25T03:13:01.593Z,57.20
2023-05-25T03:21:24.954Z,57.50
2023-05-25T03:29:51.640Z,57.58
2023-05-25T03:38:14.670Z,57.68
2023-05-25T03:46:38.660Z,57.84
2023-05-25T03:55:01.984Z,57.79
2023-05-25T04:03:25.206Z,57.86
2023-05-25T04:11:48.450Z,58.04
2023-05-25T04:20:12.230Z,58.17
2023-05-25T04:28:37.347Z,58.25
2023-05-25T04:37:09.393Z,58.29
2023-05-25T04:45:33.672Z,58.44
2023-05-25T04:53:59.764Z,58.60
2023-05-25T05:02:25.941Z,58.70
2023-05-25T05:10:50.605Z,58.80
2023-05-25T05:19:14.347Z,58.86
2023-05-25T05:27:37.622Z,58.81
2023-05-25T05:36:11.097Z,58.98
2023-05-25T05:44:36.287Z,59.25
2023-05-25T05:52:59.431Z,59.18
2023-05-25T06:01:22.566Z,59.39
2023-05-25T06:09:46.225Z,59.54
2023-05-25T06:18:10.113Z,59.62
2023-05-25T06:26:33.697Z,59.67
2023-05-25T06:34:57.049Z,59.67
2023-05-25T06:43:21.448Z,59.81
2023-05-25T06:52:05.166Z,60.05
2023-05-25T07:00:28.127Z,59.95
2023-05-25T07:08:52.226Z,60.20
2023-05-25T07:17:16.032Z,60.14
2023-05-25T07:25:39.892Z,60.35
2023-05-25T07:34:04.454Z,60.30
2023-05-25T07:42:33.935Z,60.54
2023-05-25T07:50:57.636Z,60.62
2023-05-25T07:59:20.944Z,60.61
2023-05-25T08:07:46.072Z,60.88
2023-05-25T08:16:09.769Z,60.93
2023-05-25T08:24:34.168Z,61.14
2023-05-25T08:32:57.916Z,61.31
2023-05-25T08:41:23.919Z,61.33
2023-05-25T08:49:51.008Z,61.31
2023-05-25T08:58:19.783Z,61.42
2023-05-25T09:06:57.216Z,61.52
2023-05-25T09:15:29.415Z,61.79
2023-05-25T09:23:53.049Z,61.85
2023-05-25T09:32:17.628Z,61.96
2023-05-25T09:40:41.343Z,62.00
2023-05-25T09:49:08.820Z,62.16
2023-05-25T09:57:31.915Z,62.05
2023-05-25T10:05:56.561Z,62.36
2023-05-25T10:14:30.386Z,62.33
2023-05-25T10:23:11.401Z,62.64
2023-05-25T10:31:37.941Z,62.78
2023-05-25T10:40:02.869Z,62.89
2023-05-25T10:48:36.715Z,63.05
2023-05-25T10:57:17.907Z,63.11
2023-05-25T11:05:40.900Z,63.18
2023-05-25T11:14:22.266Z,63.33
2023-05-25T11:22:45.508Z,63.25
2023-05-25T11:31:09.767Z,63.30
2023-05-25T11:39:32.817Z,63.15
2023-05-25T11:47:57.097Z,63.35
2023-05-25T11:56:34.333Z,63.46
2023-05-25T12:05:03.864Z,63.36
2023-05-25T12:13:27.443Z,63.52
2023-05-25T12:21:51.970Z,63.38
2023-05-25T12:30:15.734Z,63.41
2023-05-25T12:38:38.853Z,63.35
2023-05-25T12:47:19.779Z,63.26
2023-05-25T12:55:43.182Z,63.27
2023-05-25T13:04:06.528Z,63.13
2023-05-25T13:12:29.569Z,63.18
2023-05-25T13:20:55.856Z,63.13
2023-05-25T13:29:20.212Z,63.25
2023-05-25T13:37:43.168Z,63.14
2023-05-25T13:46:06.202Z,63.22
2023-05-25T13:54:29.178Z,63.11
2023-05-25T14:02:52.324Z,63.39
2023-05-25T14:11:17.123Z,63.10
2023-05-25T14:19:40.219Z,63.16
2023-05-25T14:28:03.694Z,63.10
2023-05-25T14:36:26.639Z,63.15
2023-05-25T14:44:49.781Z,63.10
2023-05-25T14:53:12.776Z,63.02
2023-05-25T15:01:36.074Z,63.14
2023-05-25T15:09:59.260Z,62.97
2023-05-25T15:18:22.291Z,63.00
2023-05-25T15:26:45.340Z,62.91
2023-05-25T15:35:08.705Z,62.99
2023-05-25T15:43:31.609Z,63.00
2023-05-25T15:51:56.268Z,62.79
2023-05-25T16:00:19.593Z,62.81
2023-05-25T16:08:42.658Z,62.74
2023-05-25T16:25:55.209Z,62.81
2023-05-25T16:34:18.453Z,62.73
2023-05-25T16:42:42.115Z,62.56
2023-05-25T16:51:06.353Z,62.56
2023-05-25T16:59:29.572Z,62.33
2023-05-25T17:07:52.699Z,62.56
2023-05-25T17:16:15.719Z,62.49
2023-05-25T17:24:39.013Z,62.53
2023-05-25T17:33:02.200Z,62.48
2023-05-25T17:41:26.395Z,62.50
2023-05-25T17:49:50.963Z,62.39
2023-05-25T17:58:14.005Z,62.23
2023-05-25T18:06:37.277Z,62.24
2023-05-25T18:15:03.183Z,62.30
2023-05-25T18:23:26.488Z,62.21
2023-05-25T18:31:50.546Z,61.94
2023-05-25T18:40:14.064Z,62.14
2023-05-25T18:48:38.688Z,62.13
2023-05-25T18:57:03.186Z,61.93
2023-05-25T19:05:26.502Z,61.86
2023-05-25T19:13:49.787Z,61.77
2023-05-25T19:22:13.160Z,61.80
2023-05-25T19:30:36.503Z,61.84
2023-05-25T19:38:59.565Z,61.78
2023-05-25T19:47:23.404Z,61.84
2023-05-25T19:55:46.741Z,61.66
2023-05-25T20:04:10.112Z,61.67
2023-05-25T20:12:33.687Z,61.80
2023-05-25T20:20:57.953Z,61.75
2023-05-25T20:29:21.606Z,61.76
2023-05-25T20:37:44.879Z,61.87
2023-05-25T20:46:09.697Z,61.92
2023-05-25T20:54:33.535Z,61.92
2023-05-25T21:02:56.549Z,61.93
2023-05-25T21:11:21.119Z,61.79
2023-05-25T21:19:44.229Z,62.03
2023-05-25T21:28:09.189Z,62.14
2023-05-25T21:36:32.511Z,62.11
2023-05-25T21:44:55.681Z,61.95
2023-05-25T21:53:19.927Z,62.31
2023-05-25T22:01:42.950Z,62.12
2023-05-25T22:10:06.852Z,62.23
2023-05-25T22:18:29.978Z,62.28
2023-05-25T22:26:52.916Z,62.18
2023-05-25T22:35:16.027Z,62.08
2023-05-25T22:43:39.009Z,62.28
2023-05-25T22:52:02.074Z,62.50
2023-05-25T23:00:25.760Z,62.32
2023-05-25T23:08:48.726Z,62.50
2023-05-25T23:17:12.445Z,62.14
2023-05-25T23:25:37.526Z,62.37
2023-05-25T23:34:01.378Z,62.52
2023-05-25T23:42:28.192Z,62.53
2023-05-25T23:50:51.123Z,62.47
2023-05-25T23:59:15.225Z,62.44
